sensor_id;sensor_type;location;lat;lon;timestamp;P1;durP1;ratioP1;P2;durP2;ratioP2
7179;SDS011;3631;42.152;24.756;2023-07-13T00:01:53;15.73;;;13.57;;
7179;SDS011;3631;42.152;24.756;2023-07-13T00:04:20;16.65;;;12.88;;
7179;SDS011;3631;42.152;24.756;2023-07-13T00:06:50;14.75;;;12.82;;
7179;SDS011;3631;42.152;24.756;2023-07-13T00:09:18;18.20;;;13.73;;
7179;SDS011;3631;42.152;24.756;2023-07-13T00:11:49;18.77;;;12.65;;
7179;SDS011;3631;42.152;24.756;2023-07-13T00:14:17;14.07;;;12.65;;
7179;SDS011;3631;42.152;24.756;2023-07-13T00:16:46;14.35;;;12.85;;
7179;SDS011;3631;42.152;24.756;2023-07-13T00:19:14;14.77;;;13.02;;
7179;SDS011;3631;42.152;24.756;2023-07-13T00:21:41;13.90;;;12.50;;
7179;SDS011;3631;42.152;24.756;2023-07-13T00:24:10;14.57;;;13.15;;
7179;SDS011;3631;42.152;24.756;2023-07-13T00:26:39;14.40;;;13.05;;
7179;SDS011;3631;42.152;24.756;2023-07-13T00:29:06;16.30;;;13.27;;
7179;SDS011;3631;42.152;24.756;2023-07-13T00:31:34;15.95;;;13.68;;
7179;SDS011;3631;42.152;24.756;2023-07-13T00:34:02;16.77;;;13.10;;
7179;SDS011;3631;42.152;24.756;2023-07-13T00:36:30;14.63;;;13.10;;
7179;SDS011;3631;42.152;24.756;2023-07-13T00:38:57;15.05;;;13.05;;
7179;SDS011;3631;42.152;24.756;2023-07-13T00:41:24;18.17;;;13.55;;
7179;SDS011;3631;42.152;24.756;2023-07-13T00:43:51;15.75;;;14.05;;
7179;SDS011;3631;42.152;24.756;2023-07-13T00:46:25;17.02;;;13.45;;
7179;SDS011;3631;42.152;24.756;2023-07-13T00:48:54;21.42;;;14.85;;
7179;SDS011;3631;42.152;24.756;2023-07-13T00:51:27;19.52;;;13.43;;
7179;SDS011;3631;42.152;24.756;2023-07-13T00:53:58;14.70;;;13.05;;
7179;SDS011;3631;42.152;24.756;2023-07-13T00:56:29;14.88;;;13.35;;
7179;SDS011;3631;42.152;24.756;2023-07-13T00:58:58;16.17;;;13.68;;
7179;SDS011;3631;42.152;24.756;2023-07-13T01:01:27;16.33;;;13.70;;
7179;SDS011;3631;42.152;24.756;2023-07-13T01:03:53;15.10;;;13.38;;
7179;SDS011;3631;42.152;24.756;2023-07-13T01:06:22;14.75;;;13.35;;
7179;SDS011;3631;42.152;24.756;2023-07-13T01:08:50;14.98;;;13.13;;
7179;SDS011;3631;42.152;24.756;2023-07-13T01:11:21;13.32;;;12.13;;
7179;SDS011;3631;42.152;24.756;2023-07-13T01:13:48;12.50;;;11.48;;
7179;SDS011;3631;42.152;24.756;2023-07-13T01:16:18;13.30;;;11.57;;
7179;SDS011;3631;42.152;24.756;2023-07-13T01:18:50;13.30;;;11.90;;
7179;SDS011;3631;42.152;24.756;2023-07-13T01:21:18;13.73;;;12.32;;
7179;SDS011;3631;42.152;24.756;2023-07-13T01:23:45;14.30;;;12.43;;
7179;SDS011;3631;42.152;24.756;2023-07-13T01:26:13;16.30;;;12.00;;
7179;SDS011;3631;42.152;24.756;2023-07-13T01:28:40;12.90;;;11.40;;
7179;SDS011;3631;42.152;24.756;2023-07-13T01:31:07;12.75;;;10.90;;
7179;SDS011;3631;42.152;24.756;2023-07-13T01:33:36;11.98;;;10.73;;
7179;SDS011;3631;42.152;24.756;2023-07-13T01:36:04;16.45;;;14.77;;
7179;SDS011;3631;42.152;24.756;2023-07-13T01:38:33;12.93;;;11.77;;
7179;SDS011;3631;42.152;24.756;2023-07-13T01:41:01;11.75;;;10.63;;
7179;SDS011;3631;42.152;24.756;2023-07-13T01:43:28;11.55;;;10.40;;
7179;SDS011;3631;42.152;24.756;2023-07-13T01:45:55;13.15;;;10.68;;
7179;SDS011;3631;42.152;24.756;2023-07-13T01:48:22;11.65;;;10.30;;
7179;SDS011;3631;42.152;24.756;2023-07-13T01:50:49;11.68;;;10.15;;
7179;SDS011;3631;42.152;24.756;2023-07-13T01:53:16;11.75;;;10.63;;
7179;SDS011;3631;42.152;24.756;2023-07-13T01:55:44;13.30;;;11.02;;
7179;SDS011;3631;42.152;24.756;2023-07-13T01:58:11;11.85;;;10.57;;
7179;SDS011;3631;42.152;24.756;2023-07-13T02:00:38;11.88;;;10.88;;
7179;SDS011;3631;42.152;24.756;2023-07-13T02:03:05;12.00;;;10.82;;
7179;SDS011;3631;42.152;24.756;2023-07-13T02:05:32;12.88;;;11.50;;
7179;SDS011;3631;42.152;24.756;2023-07-13T02:07:59;12.68;;;10.63;;
7179;SDS011;3631;42.152;24.756;2023-07-13T02:10:26;11.68;;;10.40;;
7179;SDS011;3631;42.152;24.756;2023-07-13T02:12:55;11.82;;;10.73;;
7179;SDS011;3631;42.152;24.756;2023-07-13T02:15:21;17.65;;;11.27;;
7179;SDS011;3631;42.152;24.756;2023-07-13T02:17:48;12.20;;;11.00;;
7179;SDS011;3631;42.152;24.756;2023-07-13T02:20:15;12.32;;;11.05;;
7179;SDS011;3631;42.152;24.756;2023-07-13T02:22:42;11.90;;;10.80;;
7179;SDS011;3631;42.152;24.756;2023-07-13T02:25:09;11.60;;;10.70;;
7179;SDS011;3631;42.152;24.756;2023-07-13T02:27:36;11.93;;;11.02;;
7179;SDS011;3631;42.152;24.756;2023-07-13T02:30:05;14.38;;;12.93;;
7179;SDS011;3631;42.152;24.756;2023-07-13T02:32:33;11.52;;;10.43;;
7179;SDS011;3631;42.152;24.756;2023-07-13T02:35:00;12.00;;;10.85;;
7179;SDS011;3631;42.152;24.756;2023-07-13T02:37:27;12.38;;;11.15;;
7179;SDS011;3631;42.152;24.756;2023-07-13T02:39:55;12.15;;;11.15;;
7179;SDS011;3631;42.152;24.756;2023-07-13T02:42:22;12.88;;;11.57;;
7179;SDS011;3631;42.152;24.756;2023-07-13T02:44:49;13.98;;;12.27;;
7179;SDS011;3631;42.152;24.756;2023-07-13T02:47:17;12.38;;;11.38;;
7179;SDS011;3631;42.152;24.756;2023-07-13T02:49:44;12.75;;;11.55;;
7179;SDS011;3631;42.152;24.756;2023-07-13T02:52:11;18.23;;;12.13;;
7179;SDS011;3631;42.152;24.756;2023-07-13T02:54:38;13.15;;;12.07;;
7179;SDS011;3631;42.152;24.756;2023-07-13T02:57:05;12.93;;;11.82;;
7179;SDS011;3631;42.152;24.756;2023-07-13T02:59:32;18.27;;;11.68;;
7179;SDS011;3631;42.152;24.756;2023-07-13T03:02:00;12.93;;;11.73;;
7179;SDS011;3631;42.152;24.756;2023-07-13T03:04:29;12.68;;;11.38;;
7179;SDS011;3631;42.152;24.756;2023-07-13T03:06:55;12.52;;;11.35;;
7179;SDS011;3631;42.152;24.756;2023-07-13T03:09:23;12.27;;;11.27;;
7179;SDS011;3631;42.152;24.756;2023-07-13T03:11:52;15.55;;;13.60;;
7179;SDS011;3631;42.152;24.756;2023-07-13T03:14:20;12.98;;;11.77;;
7179;SDS011;3631;42.152;24.756;2023-07-13T03:16:47;13.65;;;12.32;;
7179;SDS011;3631;42.152;24.756;2023-07-13T03:19:14;16.50;;;10.73;;
7179;SDS011;3631;42.152;24.756;2023-07-13T03:21:43;13.32;;;11.70;;
7179;SDS011;3631;42.152;24.756;2023-07-13T03:24:10;12.68;;;11.43;;
7179;SDS011;3631;42.152;24.756;2023-07-13T03:26:37;15.25;;;11.45;;
7179;SDS011;3631;42.152;24.756;2023-07-13T03:29:04;11.60;;;10.68;;
7179;SDS011;3631;42.152;24.756;2023-07-13T03:31:33;11.88;;;10.75;;
7179;SDS011;3631;42.152;24.756;2023-07-13T03:34:01;12.27;;;11.18;;
7179;SDS011;3631;42.152;24.756;2023-07-13T03:36:29;11.35;;;10.25;;
7179;SDS011;3631;42.152;24.756;2023-07-13T03:39:00;11.88;;;10.23;;
7179;SDS011;3631;42.152;24.756;2023-07-13T03:41:28;10.68;;;9.60;;
7179;SDS011;3631;42.152;24.756;2023-07-13T03:43:55;14.75;;;10.82;;
7179;SDS011;3631;42.152;24.756;2023-07-13T03:46:22;13.57;;;10.20;;
7179;SDS011;3631;42.152;24.756;2023-07-13T03:48:49;11.98;;;10.30;;
7179;SDS011;3631;42.152;24.756;2023-07-13T03:51:16;11.18;;;10.13;;
7179;SDS011;3631;42.152;24.756;2023-07-13T03:53:45;14.35;;;11.00;;
7179;SDS011;3631;42.152;24.756;2023-07-13T03:56:14;16.60;;;10.57;;
7179;SDS011;3631;42.152;24.756;2023-07-13T03:58:43;16.52;;;11.18;;
7179;SDS011;3631;42.152;24.756;2023-07-13T04:01:11;17.13;;;11.40;;
7179;SDS011;3631;42.152;24.756;2023-07-13T04:03:40;13.15;;;9.57;;
7179;SDS011;3631;42.152;24.756;2023-07-13T04:06:07;12.07;;;10.77;;
7179;SDS011;3631;42.152;24.756;2023-07-13T04:08:40;14.73;;;10.02;;
7179;SDS011;3631;42.152;24.756;2023-07-13T04:11:07;14.02;;;10.32;;
7179;SDS011;3631;42.152;24.756;2023-07-13T04:13:36;13.93;;;10.00;;
7179;SDS011;3631;42.152;24.756;2023-07-13T04:16:03;10.93;;;9.88;;
7179;SDS011;3631;42.152;24.756;2023-07-13T04:18:30;12.23;;;10.02;;
7179;SDS011;3631;42.152;24.756;2023-07-13T04:20:57;10.75;;;9.70;;
7179;SDS011;3631;42.152;24.756;2023-07-13T04:23:24;13.63;;;9.85;;
7179;SDS011;3631;42.152;24.756;2023-07-13T04:25:51;10.80;;;9.82;;
7179;SDS011;3631;42.152;24.756;2023-07-13T04:28:19;15.82;;;10.10;;
7179;SDS011;3631;42.152;24.756;2023-07-13T04:30:48;13.43;;;11.00;;
7179;SDS011;3631;42.152;24.756;2023-07-13T04:33:16;13.23;;;11.45;;
7179;SDS011;3631;42.152;24.756;2023-07-13T04:35:47;11.45;;;10.52;;
7179;SDS011;3631;42.152;24.756;2023-07-13T04:38:14;11.80;;;10.70;;
7179;SDS011;3631;42.152;24.756;2023-07-13T04:40:42;10.70;;;9.73;;
7179;SDS011;3631;42.152;24.756;2023-07-13T04:43:09;12.10;;;10.93;;
7179;SDS011;3631;42.152;24.756;2023-07-13T04:45:36;14.95;;;10.50;;
7179;SDS011;3631;42.152;24.756;2023-07-13T04:48:05;11.90;;;9.93;;
7179;SDS011;3631;42.152;24.756;2023-07-13T04:50:32;16.50;;;10.60;;
7179;SDS011;3631;42.152;24.756;2023-07-13T04:52:59;15.60;;;10.55;;
7179;SDS011;3631;42.152;24.756;2023-07-13T04:55:26;16.17;;;11.23;;
7179;SDS011;3631;42.152;24.756;2023-07-13T04:57:56;13.10;;;10.90;;
7179;SDS011;3631;42.152;24.756;2023-07-13T05:00:24;11.90;;;10.65;;
7179;SDS011;3631;42.152;24.756;2023-07-13T05:02:51;11.20;;;10.40;;
7179;SDS011;3631;42.152;24.756;2023-07-13T05:05:22;16.95;;;11.20;;
7179;SDS011;3631;42.152;24.756;2023-07-13T05:07:49;12.32;;;10.88;;
7179;SDS011;3631;42.152;24.756;2023-07-13T05:10:16;12.52;;;10.32;;
7179;SDS011;3631;42.152;24.756;2023-07-13T05:12:43;13.38;;;11.50;;
7179;SDS011;3631;42.152;24.756;2023-07-13T05:15:10;17.70;;;11.55;;
7179;SDS011;3631;42.152;24.756;2023-07-13T05:17:37;13.93;;;10.75;;
7179;SDS011;3631;42.152;24.756;2023-07-13T05:20:06;14.85;;;10.82;;
7179;SDS011;3631;42.152;24.756;2023-07-13T05:22:35;13.73;;;10.93;;
7179;SDS011;3631;42.152;24.756;2023-07-13T05:25:03;12.38;;;11.07;;
7179;SDS011;3631;42.152;24.756;2023-07-13T05:27:31;12.20;;;10.68;;
7179;SDS011;3631;42.152;24.756;2023-07-13T05:29:58;13.88;;;12.65;;
7179;SDS011;3631;42.152;24.756;2023-07-13T05:32:25;12.95;;;12.05;;
7179;SDS011;3631;42.152;24.756;2023-07-13T05:34:52;13.98;;;10.77;;
7179;SDS011;3631;42.152;24.756;2023-07-13T05:37:19;12.07;;;11.05;;
7179;SDS011;3631;42.152;24.756;2023-07-13T05:39:48;12.55;;;11.23;;
7179;SDS011;3631;42.152;24.756;2023-07-13T05:42:15;15.57;;;10.68;;
7179;SDS011;3631;42.152;24.756;2023-07-13T05:44:42;13.32;;;11.40;;
7179;SDS011;3631;42.152;24.756;2023-07-13T05:47:08;13.80;;;12.02;;
7179;SDS011;3631;42.152;24.756;2023-07-13T05:49:35;15.60;;;10.60;;
7179;SDS011;3631;42.152;24.756;2023-07-13T05:52:02;15.80;;;11.10;;
7179;SDS011;3631;42.152;24.756;2023-07-13T05:54:29;14.32;;;11.73;;
7179;SDS011;3631;42.152;24.756;2023-07-13T05:56:58;12.27;;;10.70;;
7179;SDS011;3631;42.152;24.756;2023-07-13T05:59:25;16.35;;;13.05;;
7179;SDS011;3631;42.152;24.756;2023-07-13T06:01:52;24.92;;;22.38;;
7179;SDS011;3631;42.152;24.756;2023-07-13T06:04:18;13.23;;;12.05;;
7179;SDS011;3631;42.152;24.756;2023-07-13T06:06:45;35.30;;;31.70;;
7179;SDS011;3631;42.152;24.756;2023-07-13T06:09:12;13.10;;;11.25;;
7179;SDS011;3631;42.152;24.756;2023-07-13T06:11:39;12.32;;;11.18;;
7179;SDS011;3631;42.152;24.756;2023-07-13T06:14:08;20.58;;;16.35;;
7179;SDS011;3631;42.152;24.756;2023-07-13T06:16:35;15.85;;;14.13;;
7179;SDS011;3631;42.152;24.756;2023-07-13T06:19:01;18.08;;;11.73;;
7179;SDS011;3631;42.152;24.756;2023-07-13T06:21:28;12.15;;;10.95;;
7179;SDS011;3631;42.152;24.756;2023-07-13T06:23:55;16.23;;;11.80;;
7179;SDS011;3631;42.152;24.756;2023-07-13T06:26:22;15.43;;;13.38;;
7179;SDS011;3631;42.152;24.756;2023-07-13T06:28:50;11.93;;;10.80;;
7179;SDS011;3631;42.152;24.756;2023-07-13T06:31:18;12.95;;;11.93;;
7179;SDS011;3631;42.152;24.756;2023-07-13T06:33:45;12.43;;;11.32;;
7179;SDS011;3631;42.152;24.756;2023-07-13T06:36:12;17.77;;;11.32;;
7179;SDS011;3631;42.152;24.756;2023-07-13T06:38:39;11.85;;;10.75;;
7179;SDS011;3631;42.152;24.756;2023-07-13T06:41:06;11.20;;;10.20;;
7179;SDS011;3631;42.152;24.756;2023-07-13T06:43:33;22.73;;;12.20;;
7179;SDS011;3631;42.152;24.756;2023-07-13T06:46:00;18.70;;;13.23;;
7179;SDS011;3631;42.152;24.756;2023-07-13T06:48:28;12.25;;;10.95;;
7179;SDS011;3631;42.152;24.756;2023-07-13T06:50:55;11.68;;;10.43;;
7179;SDS011;3631;42.152;24.756;2023-07-13T06:53:22;16.83;;;11.27;;
7179;SDS011;3631;42.152;24.756;2023-07-13T06:55:49;11.45;;;10.23;;
7179;SDS011;3631;42.152;24.756;2023-07-13T06:58:17;12.20;;;10.95;;
7179;SDS011;3631;42.152;24.756;2023-07-13T07:00:45;12.55;;;11.55;;
7179;SDS011;3631;42.152;24.756;2023-07-13T07:03:12;12.63;;;10.90;;
7179;SDS011;3631;42.152;24.756;2023-07-13T07:05:40;12.43;;;11.13;;
7179;SDS011;3631;42.152;24.756;2023-07-13T07:08:07;12.52;;;11.20;;
7179;SDS011;3631;42.152;24.756;2023-07-13T07:10:34;12.85;;;11.85;;
7179;SDS011;3631;42.152;24.756;2023-07-13T07:13:02;11.75;;;10.65;;
7179;SDS011;3631;42.152;24.756;2023-07-13T07:15:29;11.23;;;10.18;;
7179;SDS011;3631;42.152;24.756;2023-07-13T07:17:57;11.60;;;10.68;;
7179;SDS011;3631;42.152;24.756;2023-07-13T07:20:23;12.52;;;10.85;;
7179;SDS011;3631;42.152;24.756;2023-07-13T07:22:52;11.88;;;10.80;;
7179;SDS011;3631;42.152;24.756;2023-07-13T07:25:19;11.93;;;10.77;;
7179;SDS011;3631;42.152;24.756;2023-07-13T07:27:46;11.93;;;10.80;;
7179;SDS011;3631;42.152;24.756;2023-07-13T07:30:13;12.90;;;11.40;;
7179;SDS011;3631;42.152;24.756;2023-07-13T07:32:40;11.98;;;10.82;;
7179;SDS011;3631;42.152;24.756;2023-07-13T07:35:08;12.73;;;11.68;;
7179;SDS011;3631;42.152;24.756;2023-07-13T07:37:35;12.40;;;11.25;;
7179;SDS011;3631;42.152;24.756;2023-07-13T07:40:04;11.77;;;10.75;;
7179;SDS011;3631;42.152;24.756;2023-07-13T07:42:31;10.90;;;10.05;;
7179;SDS011;3631;42.152;24.756;2023-07-13T07:44:58;11.13;;;10.20;;
7179;SDS011;3631;42.152;24.756;2023-07-13T07:47:26;11.75;;;10.85;;
7179;SDS011;3631;42.152;24.756;2023-07-13T07:49:53;11.48;;;10.50;;
7179;SDS011;3631;42.152;24.756;2023-07-13T07:52:20;10.23;;;9.35;;
7179;SDS011;3631;42.152;24.756;2023-07-13T07:54:47;11.27;;;10.02;;
7179;SDS011;3631;42.152;24.756;2023-07-13T07:57:15;10.80;;;9.85;;
7179;SDS011;3631;42.152;24.756;2023-07-13T07:59:42;27.50;;;10.57;;
7179;SDS011;3631;42.152;24.756;2023-07-13T08:02:09;10.90;;;9.43;;
7179;SDS011;3631;42.152;24.756;2023-07-13T08:04:37;10.55;;;8.98;;
7179;SDS011;3631;42.152;24.756;2023-07-13T08:07:04;10.02;;;9.13;;
7179;SDS011;3631;42.152;24.756;2023-07-13T08:09:31;11.85;;;9.60;;
7179;SDS011;3631;42.152;24.756;2023-07-13T08:11:58;15.02;;;9.80;;
7179;SDS011;3631;42.152;24.756;2023-07-13T08:14:27;10.05;;;9.15;;
7179;SDS011;3631;42.152;24.756;2023-07-13T08:16:54;9.90;;;9.00;;
7179;SDS011;3631;42.152;24.756;2023-07-13T08:19:21;10.55;;;9.73;;
7179;SDS011;3631;42.152;24.756;2023-07-13T08:21:48;11.07;;;9.98;;
7179;SDS011;3631;42.152;24.756;2023-07-13T08:24:15;10.18;;;9.32;;
7179;SDS011;3631;42.152;24.756;2023-07-13T08:26:43;11.10;;;9.63;;
7179;SDS011;3631;42.152;24.756;2023-07-13T08:29:11;16.20;;;10.55;;
7179;SDS011;3631;42.152;24.756;2023-07-13T08:31:39;15.57;;;12.20;;
7179;SDS011;3631;42.152;24.756;2023-07-13T08:34:06;11.05;;;10.02;;
7179;SDS011;3631;42.152;24.756;2023-07-13T08:36:33;10.63;;;8.65;;
7179;SDS011;3631;42.152;24.756;2023-07-13T08:39:00;10.13;;;9.40;;
7179;SDS011;3631;42.152;24.756;2023-07-13T08:41:27;10.48;;;9.65;;
7179;SDS011;3631;42.152;24.756;2023-07-13T08:43:56;11.32;;;9.38;;
7179;SDS011;3631;42.152;24.756;2023-07-13T08:46:25;10.57;;;9.57;;
7179;SDS011;3631;42.152;24.756;2023-07-13T08:49:01;10.45;;;9.63;;
7179;SDS011;3631;42.152;24.756;2023-07-13T08:51:35;10.65;;;9.82;;
7179;SDS011;3631;42.152;24.756;2023-07-13T08:54:11;11.32;;;9.95;;
7179;SDS011;3631;42.152;24.756;2023-07-13T08:56:44;10.57;;;9.45;;
7179;SDS011;3631;42.152;24.756;2023-07-13T08:59:13;16.48;;;12.40;;
7179;SDS011;3631;42.152;24.756;2023-07-13T09:04:42;13.80;;;9.90;;
7179;SDS011;3631;42.152;24.756;2023-07-13T09:07:14;16.33;;;10.07;;
7179;SDS011;3631;42.152;24.756;2023-07-13T09:09:58;10.48;;;9.23;;
7179;SDS011;3631;42.152;24.756;2023-07-13T09:12:35;10.02;;;9.05;;
7179;SDS011;3631;42.152;24.756;2023-07-13T09:15:17;15.70;;;9.35;;
7179;SDS011;3631;42.152;24.756;2023-07-13T09:17:51;10.43;;;8.70;;
7179;SDS011;3631;42.152;24.756;2023-07-13T09:20:23;13.35;;;8.27;;
7179;SDS011;3631;42.152;24.756;2023-07-13T09:22:55;9.40;;;8.63;;
7179;SDS011;3631;42.152;24.756;2023-07-13T09:25:27;10.63;;;9.63;;
7179;SDS011;3631;42.152;24.756;2023-07-13T09:27:57;10.77;;;8.57;;
7179;SDS011;3631;42.152;24.756;2023-07-13T09:30:30;8.95;;;8.25;;
7179;SDS011;3631;42.152;24.756;2023-07-13T09:33:03;8.80;;;8.02;;
7179;SDS011;3631;42.152;24.756;2023-07-13T09:35:31;17.05;;;8.80;;
7179;SDS011;3631;42.152;24.756;2023-07-13T09:38:03;12.95;;;8.13;;
7179;SDS011;3631;42.152;24.756;2023-07-13T09:40:37;12.95;;;8.45;;
7179;SDS011;3631;42.152;24.756;2023-07-13T09:43:10;8.68;;;7.97;;
7179;SDS011;3631;42.152;24.756;2023-07-13T09:45:40;8.35;;;7.65;;
7179;SDS011;3631;42.152;24.756;2023-07-13T09:48:12;9.10;;;7.75;;
7179;SDS011;3631;42.152;24.756;2023-07-13T09:50:41;11.55;;;7.88;;
7179;SDS011;3631;42.152;24.756;2023-07-13T09:53:13;9.95;;;7.60;;
7179;SDS011;3631;42.152;24.756;2023-07-13T09:55:41;7.68;;;6.88;;
7179;SDS011;3631;42.152;24.756;2023-07-13T09:58:10;10.15;;;6.95;;
7179;SDS011;3631;42.152;24.756;2023-07-13T10:00:41;10.23;;;7.78;;
7179;SDS011;3631;42.152;24.756;2023-07-13T10:03:17;8.02;;;7.28;;
7179;SDS011;3631;42.152;24.756;2023-07-13T10:05:47;7.57;;;7.00;;
7179;SDS011;3631;42.152;24.756;2023-07-13T10:08:17;26.38;;;23.58;;
7179;SDS011;3631;42.152;24.756;2023-07-13T10:10:45;7.75;;;7.22;;
7179;SDS011;3631;42.152;24.756;2023-07-13T10:13:22;8.30;;;7.60;;
7179;SDS011;3631;42.152;24.756;2023-07-13T10:15:53;9.45;;;6.88;;
7179;SDS011;3631;42.152;24.756;2023-07-13T10:18:21;8.70;;;7.55;;
7179;SDS011;3631;42.152;24.756;2023-07-13T10:20:52;7.40;;;6.90;;
7179;SDS011;3631;42.152;24.756;2023-07-13T10:23:26;7.03;;;6.50;;
7179;SDS011;3631;42.152;24.756;2023-07-13T10:25:57;8.02;;;7.20;;
7179;SDS011;3631;42.152;24.756;2023-07-13T10:28:28;9.65;;;6.72;;
7179;SDS011;3631;42.152;24.756;2023-07-13T10:30:58;7.50;;;6.95;;
7179;SDS011;3631;42.152;24.756;2023-07-13T10:33:27;12.13;;;7.93;;
7179;SDS011;3631;42.152;24.756;2023-07-13T10:35:57;7.80;;;6.80;;
7179;SDS011;3631;42.152;24.756;2023-07-13T10:38:29;6.90;;;6.50;;
7179;SDS011;3631;42.152;24.756;2023-07-13T10:40:58;10.60;;;7.40;;
7179;SDS011;3631;42.152;24.756;2023-07-13T10:43:31;7.03;;;6.45;;
7179;SDS011;3631;42.152;24.756;2023-07-13T10:46:03;9.68;;;8.00;;
7179;SDS011;3631;42.152;24.756;2023-07-13T10:48:33;9.43;;;7.25;;
7179;SDS011;3631;42.152;24.756;2023-07-13T10:51:03;7.65;;;6.80;;
7179;SDS011;3631;42.152;24.756;2023-07-13T10:53:33;10.07;;;9.05;;
7179;SDS011;3631;42.152;24.756;2023-07-13T10:56:02;8.63;;;7.55;;
7179;SDS011;3631;42.152;24.756;2023-07-13T10:58:34;7.53;;;6.82;;
7179;SDS011;3631;42.152;24.756;2023-07-13T11:01:03;7.43;;;6.72;;
7179;SDS011;3631;42.152;24.756;2023-07-13T11:03:37;7.68;;;6.97;;
7179;SDS011;3631;42.152;24.756;2023-07-13T11:06:15;8.13;;;7.35;;
7179;SDS011;3631;42.152;24.756;2023-07-13T11:09:07;8.48;;;6.10;;
7179;SDS011;3631;42.152;24.756;2023-07-13T11:11:45;10.43;;;6.57;;
7179;SDS011;3631;42.152;24.756;2023-07-13T11:14:25;7.43;;;6.82;;
7179;SDS011;3631;42.152;24.756;2023-07-13T11:16:55;6.40;;;5.75;;
7179;SDS011;3631;42.152;24.756;2023-07-13T11:19:39;7.18;;;6.47;;
7179;SDS011;3631;42.152;24.756;2023-07-13T11:22:13;10.52;;;5.43;;
7179;SDS011;3631;42.152;24.756;2023-07-13T11:24:49;6.43;;;6.00;;
7179;SDS011;3631;42.152;24.756;2023-07-13T11:27:21;7.28;;;5.43;;
7179;SDS011;3631;42.152;24.756;2023-07-13T11:30:06;8.88;;;6.07;;
7179;SDS011;3631;42.152;24.756;2023-07-13T11:32:35;9.88;;;5.80;;
7179;SDS011;3631;42.152;24.756;2023-07-13T11:35:02;10.18;;;5.47;;
7179;SDS011;3631;42.152;24.756;2023-07-13T11:37:31;6.03;;;5.43;;
7179;SDS011;3631;42.152;24.756;2023-07-13T11:39:58;6.38;;;5.88;;
7179;SDS011;3631;42.152;24.756;2023-07-13T11:42:25;8.75;;;5.90;;
7179;SDS011;3631;42.152;24.756;2023-07-13T11:44:52;7.20;;;5.50;;
7179;SDS011;3631;42.152;24.756;2023-07-13T11:47:21;6.88;;;6.32;;
7179;SDS011;3631;42.152;24.756;2023-07-13T11:49:52;6.90;;;5.32;;
7179;SDS011;3631;42.152;24.756;2023-07-13T11:52:23;7.88;;;5.68;;
7179;SDS011;3631;42.152;24.756;2023-07-13T11:55:00;6.30;;;5.70;;
7179;SDS011;3631;42.152;24.756;2023-07-13T11:57:29;6.22;;;5.57;;
7179;SDS011;3631;42.152;24.756;2023-07-13T11:59:59;6.38;;;5.45;;
7179;SDS011;3631;42.152;24.756;2023-07-13T12:02:31;9.20;;;5.72;;
7179;SDS011;3631;42.152;24.756;2023-07-13T12:05:00;8.77;;;5.25;;
7179;SDS011;3631;42.152;24.756;2023-07-13T12:07:30;8.90;;;5.53;;
7179;SDS011;3631;42.152;24.756;2023-07-13T12:10:01;9.25;;;5.80;;
7179;SDS011;3631;42.152;24.756;2023-07-13T12:12:29;6.07;;;5.47;;
7179;SDS011;3631;42.152;24.756;2023-07-13T12:14:57;13.85;;;6.00;;
7179;SDS011;3631;42.152;24.756;2023-07-13T12:17:24;12.73;;;6.10;;
7179;SDS011;3631;42.152;24.756;2023-07-13T12:19:52;6.07;;;5.55;;
7179;SDS011;3631;42.152;24.756;2023-07-13T12:22:20;8.93;;;5.75;;
7179;SDS011;3631;42.152;24.756;2023-07-13T12:24:48;6.05;;;5.25;;
7179;SDS011;3631;42.152;24.756;2023-07-13T12:27:19;15.82;;;5.72;;
7179;SDS011;3631;42.152;24.756;2023-07-13T12:29:49;8.18;;;5.53;;
7179;SDS011;3631;42.152;24.756;2023-07-13T12:32:18;7.38;;;5.07;;
7179;SDS011;3631;42.152;24.756;2023-07-13T12:34:52;8.43;;;6.50;;
7179;SDS011;3631;42.152;24.756;2023-07-13T12:37:21;7.30;;;6.53;;
7179;SDS011;3631;42.152;24.756;2023-07-13T12:39:48;18.15;;;6.82;;
7179;SDS011;3631;42.152;24.756;2023-07-13T12:42:21;8.00;;;7.18;;
7179;SDS011;3631;42.152;24.756;2023-07-13T12:44:52;7.68;;;6.80;;
7179;SDS011;3631;42.152;24.756;2023-07-13T12:47:21;6.88;;;6.35;;
7179;SDS011;3631;42.152;24.756;2023-07-13T12:49:48;8.95;;;7.22;;
7179;SDS011;3631;42.152;24.756;2023-07-13T12:52:19;7.57;;;6.68;;
7179;SDS011;3631;42.152;24.756;2023-07-13T12:54:53;7.70;;;6.93;;
7179;SDS011;3631;42.152;24.756;2023-07-13T12:57:24;9.93;;;6.45;;
7179;SDS011;3631;42.152;24.756;2023-07-13T12:59:52;8.82;;;7.07;;
7179;SDS011;3631;42.152;24.756;2023-07-13T13:02:28;12.00;;;6.97;;
7179;SDS011;3631;42.152;24.756;2023-07-13T13:04:57;19.40;;;7.28;;
7179;SDS011;3631;42.152;24.756;2023-07-13T13:07:25;11.52;;;6.50;;
7179;SDS011;3631;42.152;24.756;2023-07-13T13:09:52;8.70;;;6.22;;
7179;SDS011;3631;42.152;24.756;2023-07-13T13:12:20;7.03;;;6.38;;
7179;SDS011;3631;42.152;24.756;2023-07-13T13:14:48;7.90;;;7.10;;
7179;SDS011;3631;42.152;24.756;2023-07-13T13:17:18;7.53;;;6.40;;
7179;SDS011;3631;42.152;24.756;2023-07-13T13:19:49;6.82;;;6.28;;
7179;SDS011;3631;42.152;24.756;2023-07-13T13:22:18;7.90;;;7.03;;
7179;SDS011;3631;42.152;24.756;2023-07-13T13:24:45;11.30;;;6.85;;
7179;SDS011;3631;42.152;24.756;2023-07-13T13:27:14;9.50;;;6.32;;
7179;SDS011;3631;42.152;24.756;2023-07-13T13:29:43;9.13;;;7.13;;
7179;SDS011;3631;42.152;24.756;2023-07-13T13:32:13;9.48;;;6.47;;
7179;SDS011;3631;42.152;24.756;2023-07-13T13:34:41;8.13;;;6.35;;
7179;SDS011;3631;42.152;24.756;2023-07-13T13:37:15;9.40;;;6.53;;
7179;SDS011;3631;42.152;24.756;2023-07-13T13:39:45;12.27;;;6.22;;
7179;SDS011;3631;42.152;24.756;2023-07-13T13:42:13;7.88;;;6.53;;
7179;SDS011;3631;42.152;24.756;2023-07-13T13:44:40;8.35;;;6.88;;
7179;SDS011;3631;42.152;24.756;2023-07-13T13:47:13;10.35;;;6.88;;
7179;SDS011;3631;42.152;24.756;2023-07-13T13:49:54;15.05;;;6.90;;
7179;SDS011;3631;42.152;24.756;2023-07-13T13:52:21;13.07;;;6.97;;
7179;SDS011;3631;42.152;24.756;2023-07-13T13:54:48;11.50;;;5.93;;
7179;SDS011;3631;42.152;24.756;2023-07-13T13:57:15;9.50;;;6.70;;
7179;SDS011;3631;42.152;24.756;2023-07-13T13:59:42;9.57;;;6.72;;
7179;SDS011;3631;42.152;24.756;2023-07-13T14:02:19;14.10;;;6.38;;
7179;SDS011;3631;42.152;24.756;2023-07-13T14:04:52;10.52;;;6.35;;
7179;SDS011;3631;42.152;24.756;2023-07-13T14:07:22;12.70;;;6.90;;
7179;SDS011;3631;42.152;24.756;2023-07-13T14:09:49;12.07;;;6.20;;
7179;SDS011;3631;42.152;24.756;2023-07-13T14:12:16;6.95;;;6.40;;
7179;SDS011;3631;42.152;24.756;2023-07-13T14:14:43;11.85;;;6.32;;
7179;SDS011;3631;42.152;24.756;2023-07-13T14:17:17;16.20;;;6.50;;
7179;SDS011;3631;42.152;24.756;2023-07-13T14:19:49;10.30;;;6.95;;
7179;SDS011;3631;42.152;24.756;2023-07-13T14:22:22;11.77;;;6.32;;
7179;SDS011;3631;42.152;24.756;2023-07-13T14:24:49;6.90;;;6.05;;
7179;SDS011;3631;42.152;24.756;2023-07-13T14:27:16;10.40;;;6.63;;
7179;SDS011;3631;42.152;24.756;2023-07-13T14:29:43;8.48;;;5.93;;
7179;SDS011;3631;42.152;24.756;2023-07-13T14:32:10;10.95;;;6.05;;
7179;SDS011;3631;42.152;24.756;2023-07-13T14:34:37;10.52;;;6.78;;
7179;SDS011;3631;42.152;24.756;2023-07-13T14:37:08;9.63;;;6.32;;
7179;SDS011;3631;42.152;24.756;2023-07-13T14:39:39;7.28;;;5.93;;
7179;SDS011;3631;42.152;24.756;2023-07-13T14:42:08;9.10;;;6.43;;
7179;SDS011;3631;42.152;24.756;2023-07-13T14:44:39;7.25;;;6.25;;
7179;SDS011;3631;42.152;24.756;2023-07-13T14:47:06;10.00;;;6.35;;
7179;SDS011;3631;42.152;24.756;2023-07-13T14:49:34;11.55;;;6.30;;
7179;SDS011;3631;42.152;24.756;2023-07-13T14:52:05;11.10;;;6.13;;
7179;SDS011;3631;42.152;24.756;2023-07-13T14:54:39;11.85;;;6.50;;
7179;SDS011;3631;42.152;24.756;2023-07-13T14:57:09;13.35;;;7.00;;